Latest Weather Observations for Southern Cross Airport

IDW60801

Issued at 2:02 pm WST Monday 26 January 2015 (issued every 30 minutes, with the page automatically refreshed every 10 minutes)

About weather observations | Map of weather stations | Latest weather observations for WA | Other Formats
Station Details ID: 012320 Name: SOUTHERN CROSS AIRFIELD Lat: -31.24 Lon: 119.36 Height: 347.4 m
Data from the previous 72 hours. | See also: Recent months at Southern Cross Airport
Date/Time
WST
Temp
°C
App
Temp
°C
Dew
Point
Rel
Hum
%
Delta-T
°C
Wind Press
QNH
hPa
Press
MSL
hPa
Rain
since 9 am
mm
Dir
 
Spd
km/h
Gust
km/h
Spd
kts
Gust
kts
26/02:00pm 32.6 28.2 6.7 20 14.3 ESE 19 37 10 20 1011.7 1009.6 0.0
26/01:30pm 31.8 27.5 6.8 21 13.8 E 19 30 10 16 1012.0 1009.9 0.0
26/01:00pm 31.6 26.3 6.6 21 13.7 E 24 35 13 19 1012.6 1010.5 0.0
26/12:30pm 31.3 26.4 7.1 22 13.3 ENE 22 33 12 18 1012.9 1010.8 0.0
26/12:00pm 30.6 25.6 6.5 22 13.1 E 22 43 12 23 1013.4 1011.3 0.0
26/11:30am 29.7 24.4 7.0 24 12.4 ENE 24 37 13 20 1014.2 1012.2 0.0
26/11:00am 28.2 22.9 6.9 26 11.5 ENE 24 35 13 19 1014.8 1012.7 0.0
26/10:30am 27.1 21.4 6.5 27 11.0 ENE 26 39 14 21 1015.2 1013.1 0.0
26/10:00am 26.2 21.3 6.8 29 10.3 ENE 22 30 12 16 1015.4 1013.3 0.0
26/09:30am 24.7 19.4 6.9 32 9.4 E 24 33 13 18 1015.5 1013.4 0.0
26/09:00am 23.3 17.6 6.6 34 8.7 E 26 33 14 18 1015.8 1013.7 0.0
26/08:30am 22.1 16.8 6.7 37 8.0 E 24 39 13 21 1015.9 1013.8 0.0
26/08:00am 20.7 15.4 6.6 40 7.2 E 24 35 13 19 1016.1 1014.0 0.0
26/07:30am 19.6 14.7 6.7 43 6.6 E 22 32 12 17 1016.6 1014.6 0.0
26/07:00am 18.7 13.7 6.5 45 6.2 E 22 30 12 16 1016.4 1014.3 0.0
26/06:30am 17.8 12.5 6.7 48 5.6 E 24 33 13 18 1016.1 1014.0 0.0
26/06:00am 16.9 12.8 6.4 50 5.2 E 17 24 9 13 1016.1 1014.0 0.0
26/05:30am 16.1 11.7 6.5 53 4.8 ESE 19 26 10 14 1016.1 1014.0 0.0
26/05:00am 16.1 12.1 6.5 53 4.8 ESE 17 24 9 13 1015.8 1013.7 0.0
26/04:30am 16.4 12.1 6.8 53 4.8 ESE 19 24 10 13 1015.6 1013.5 0.0
26/04:00am 16.6 12.0 6.7 52 5.0 ESE 20 24 11 13 1015.4 1013.3 0.0
26/03:30am 16.7 12.1 6.5 51 5.1 ESE 20 28 11 15 1015.5 1013.4 0.0
26/03:00am 17.0 12.7 6.8 51 5.1 ESE 19 24 10 13 1015.5 1013.4 0.0
26/02:30am 17.4 12.1 6.9 50 5.3 SE 24 35 13 19 1015.2 1013.1 0.0
26/02:00am 17.8 11.4 7.0 49 5.5 SE 30 37 16 20 1015.1 1013.0 0.0
26/01:30am 18.2 11.7 6.7 47 5.8 SE 30 35 16 19 1015.0 1012.9 0.0
26/01:00am 18.8 12.1 7.3 47 5.9 SE 32 43 17 23 1014.9 1012.8 0.0
26/12:32am 19.3 12.5 7.1 45 6.3 SE 32 50 17 27 1015.1 1013.0 0.0
26/12:30am 19.4 12.1 7.2 45 6.3 SE 35 50 19 27 1015.0 1012.9 0.0
26/12:00am 20.1 13.3 7.1 43 6.7 SE 32 44 17 24 1015.1 1013.0 0.0
 
Date/Time
WST
Temp
°C
App
Temp
°C
Dew
Point
Rel
Hum
%
Delta-T
°C
Wind Press
QNH
hPa
Press
MSL
hPa
Rain
since 9 am
mm
Dir
 
Spd
km/h
Gust
km/h
Spd
kts
Gust
kts
25/11:30pm 20.9 14.0 7.2 41 7.1 SE 33 41 18 22 1015.0 1012.9 0.0
25/11:00pm 22.1 14.6 6.3 36 8.1 SE 35 46 19 25 1014.8 1012.7 0.0
25/10:30pm 24.1 17.9 2.3 24 10.6 ESE 24 33 13 18 1014.8 1012.7 0.0
25/10:00pm 24.6 18.0 2.1 23 10.9 ESE 26 33 14 18 1014.7 1012.6 0.0
25/09:30pm 25.3 18.2 1.4 21 11.5 SE 28 35 15 19 1014.5 1012.5 0.0
25/09:00pm 25.9 19.3 -0.2 18 12.3 SE 24 28 13 15 1014.2 1012.2 0.0
25/08:30pm 26.8 20.2 -0.3 17 12.8 SE 24 32 13 17 1013.7 1011.6 0.0
25/08:00pm 27.6 20.7 0.4 17 13.1 SE 26 33 14 18 1013.5 1011.4 0.0
25/07:30pm 28.6 22.9 0.3 16 13.7 ESE 20 28 11 15 1013.3 1011.2 0.0
25/07:00pm 29.5 23.9 1.1 16 14.0 ESE 20 33 11 18 1013.0 1010.9 0.0
25/06:30pm 30.5 23.1 1.9 16 14.4 SE 30 41 16 22 1012.8 1010.7 0.0
25/06:00pm 31.2 24.9 1.5 15 14.9 SE 24 33 13 18 1012.5 1010.4 0.0
25/05:30pm 31.3 25.2 2.5 16 14.7 SE 24 37 13 20 1012.3 1010.2 0.0
25/05:00pm 31.7 26.1 3.7 17 14.6 ESE 22 33 12 18 1012.3 1010.2 0.0
25/04:30pm 32.0 26.5 3.9 17 14.7 SE 22 37 12 20 1012.5 1010.4 0.0
25/04:00pm 31.8 26.4 4.6 18 14.4 SE 22 33 12 18 1012.8 1010.7 0.0
25/03:30pm 31.7 27.3 4.5 18 14.4 SE 17 30 9 16 1013.2 1011.1 0.0
25/03:00pm 30.8 26.1 5.3 20 13.6 ESE 19 33 10 18 1013.5 1011.4 0.0
25/02:30pm 31.5 25.8 5.1 19 14.1 SE 24 35 13 19 1013.7 1011.6 0.0
25/02:00pm 30.1 25.8 5.4 21 13.1 E 17 30 9 16 1014.1 1012.1 0.0
25/01:30pm 30.5 26.1 6.4 22 13.1 ESE 19 30 10 16 1014.5 1012.5 0.0
25/01:00pm 29.5 25.0 6.8 24 12.3 E 20 33 11 18 1015.0 1012.9 0.0
25/12:30pm 28.7 24.1 6.7 25 11.9 E 20 32 11 17 1015.5 1013.4 0.0
25/12:00pm 28.1 23.3 7.4 27 11.3 ESE 22 32 12 17 1016.0 1013.9 0.0
25/11:30am 26.8 22.2 8.3 31 10.2 E 22 33 12 18 1016.4 1014.3 0.0
25/11:00am 25.9 21.7 8.4 33 9.6 E 20 35 11 19 1016.7 1014.7 0.0
25/10:30am 25.7 21.7 9.1 35 9.2 E 20 32 11 17 1017.0 1015.0 0.0
25/10:00am 23.9 19.4 8.7 38 8.3 E 22 32 12 17 1017.2 1015.2 0.0
25/09:30am 22.9 18.5 9.0 41 7.6 E 22 28 12 15 1017.4 1015.4 0.0
25/09:00am 21.0 16.3 9.3 47 6.3 ESE 24 37 13 20 1017.5 1015.5 0.0
25/08:30am 20.0 15.7 9.3 50 5.8 ESE 22 32 12 17 1017.4 1015.4 0.0
25/08:00am 18.4 13.8 9.5 56 4.8 ESE 24 35 13 19 1017.5 1015.5 0.0
25/07:30am 17.4 11.9 9.3 59 4.3 ESE 28 37 15 20 1017.5 1015.5 0.0
25/07:00am 16.6 11.1 9.3 62 3.8 ESE 28 39 15 21 1017.7 1015.6 0.0
25/06:30am 15.9 11.2 9.3 65 3.5 ESE 24 32 13 17 1017.5 1015.5 0.0
25/06:00am 15.2 10.9 9.3 68 3.1 ESE 22 32 12 17 1017.3 1015.3 0.0
25/05:30am 14.8 11.1 9.4 70 2.8 ESE 19 30 10 16 1017.0 1015.0 0.0
25/05:00am 15.0 11.0 9.1 68 3.1 ESE 20 28 11 15 1016.7 1014.7 0.0
25/04:30am 15.2 10.8 8.9 66 3.3 SE 22 33 12 18 1016.4 1014.3 0.0
25/04:00am 15.4 10.6 8.9 65 3.4 ESE 24 32 13 17 1016.0 1013.9 0.0
25/03:30am 15.8 11.0 9.0 64 3.6 ESE 24 33 13 18 1015.7 1013.6 0.0
25/03:00am 16.0 11.2 9.0 63 3.7 ESE 24 33 13 18 1015.7 1013.6 0.0
25/02:30am 16.5 11.8 9.2 62 3.8 ESE 24 35 13 19 1015.7 1013.6 0.0
25/02:00am 17.1 11.5 8.8 58 4.4 ESE 28 43 15 23 1015.5 1013.4 0.0
25/01:30am 17.7 11.7 8.6 55 4.8 SE 30 37 16 20 1015.3 1013.2 0.0
25/01:00am 18.1 12.3 7.8 51 5.3 SE 28 37 15 20 1015.7 1013.6 0.0
25/12:30am 18.6 13.1 7.4 48 5.8 SE 26 37 14 20 1015.6 1013.5 0.0
25/12:00am 19.2 12.5 7.3 46 6.1 SE 32 43 17 23 1015.5 1013.4 0.0
 
Date/Time
WST
Temp
°C
App
Temp
°C
Dew
Point
Rel
Hum
%
Delta-T
°C
Wind Press
QNH
hPa
Press
MSL
hPa
Rain
since 9 am
mm
Dir
 
Spd
km/h
Gust
km/h
Spd
kts
Gust
kts
24/11:30pm 19.7 12.0 7.1 44 6.5 SE 37 46 20 25 1015.5 1013.4 0.0
24/11:00pm 20.7 13.4 7.3 42 7.0 SE 35 46 19 25 1015.1 1013.0 0.0
24/10:30pm 21.6 13.7 7.8 41 7.3 SE 39 52 21 28 1014.9 1012.8 0.0
24/10:00pm 23.0 15.5 7.9 38 8.1 SE 37 46 20 25 1014.7 1012.6 0.0
24/09:30pm 24.8 16.7 7.0 32 9.5 SE 39 50 21 27 1014.3 1012.3 0.0
24/09:07pm 25.8 19.5 5.9 28 10.4 SE 28 44 15 24 1014.0 1012.0 0.0
24/09:00pm 26.1 20.9 3.4 23 11.4 SSE 20 26 11 14 1014.0 1012.0 0.0
24/08:30pm 26.7 19.4 2.6 21 12.0 SSE 30 39 16 21 1013.7 1011.6 0.0
24/08:00pm 27.5 19.5 1.8 19 12.7 S 33 46 18 25 1013.2 1011.1 0.0
24/07:30pm 28.6 21.8 -4.7 11 14.7 S 22 32 12 17 1012.9 1010.8 0.0
24/07:00pm 29.6 22.9 -8.1 8 15.9 S 20 26 11 14 1012.6 1010.5 0.0
24/06:30pm 30.3 22.9 -7.6 8 16.2 S 24 32 13 17 1012.5 1010.4 0.0
24/06:00pm 31.2 23.2 -5.4 9 16.3 S 28 35 15 19 1012.2 1010.1 0.0
24/05:30pm 31.8 24.4 -3.5 10 16.3 S 26 35 14 19 1012.1 1010.0 0.0
24/05:00pm 32.0 25.0 -3.4 10 16.5 SSW 24 35 13 19 1011.9 1009.8 0.0
24/04:30pm 32.6 26.4 -2.9 10 16.7 SSW 20 30 11 16 1012.0 1009.9 0.0
24/04:00pm 32.9 26.4 -2.7 10 16.9 S 22 39 12 21 1011.8 1009.7 0.0
24/03:30pm 33.1 26.8 -1.3 11 16.7 S 22 32 12 17 1012.1 1010.0 0.0
24/03:00pm 32.6 26.7 -0.5 12 16.2 SSE 20 32 11 17 1012.2 1010.1 0.0
24/02:30pm 32.2 27.6 1.3 14 15.6 SSE 15 26 8 14 1012.5 1010.4 0.0
24/02:00pm 32.3 26.0 -0.7 12 16.1 SSW 22 33 12 18 1012.8 1010.7 0.0
24/01:30pm 31.6 26.1 0.9 14 15.3 S 19 32 10 17 1013.0 1010.9 0.0
24/01:00pm 31.5 26.0 1.8 15 15.0 SSW 20 33 11 18 1013.3 1011.2 0.0
24/12:30pm 30.7 28.5 5.2 20 13.6 SE 6 20 3 11 1013.7 1011.6 0.0
24/12:00pm 30.0 26.0 6.6 23 12.7 ESE 17 28 9 15 1014.2 1012.2 0.0
24/11:30am 28.6 24.5 6.1 24 12.0 SSE 17 24 9 13 1014.9 1012.8 0.0
24/11:00am 27.7 24.0 8.1 29 10.8 SE 17 24 9 13 1015.2 1013.1 0.0
24/10:30am 26.5 23.7 8.5 32 9.9 SE 13 22 7 12 1015.6 1013.5 0.0
24/10:00am 25.4 21.9 8.8 35 9.1 SE 17 26 9 14 1015.7 1013.6 0.0
24/09:30am 23.7 20.0 10.0 42 7.6 SE 20 28 11 15 1015.9 1013.8 0.0
24/09:00am 22.1 18.6 10.3 47 6.5 SE 19 28 10 15 1016.1 1014.0 0.0
24/08:30am 21.3 18.1 11.1 52 5.7 SE 19 26 10 14 1016.2 1014.1 0.0
24/08:00am 19.8 16.6 11.3 58 4.7 ESE 19 26 10 14 1016.3 1014.2 0.0
24/07:30am 18.3 14.6 11.4 64 3.8 ESE 22 32 12 17 1016.1 1014.0 0.0
24/07:00am 17.3 13.2 11.3 68 3.3 SE 24 30 13 16 1016.0 1013.9 0.0
24/06:30am 16.6 12.8 11.1 70 3.0 SE 22 30 12 16 1016.0 1013.9 0.0
24/06:00am 16.5 13.0 11.0 70 3.0 SE 20 26 11 14 1015.8 1013.7 0.0
24/05:30am 16.5 13.2 10.8 69 3.1 SE 19 22 10 12 1015.4 1013.3 0.0
24/05:00am 16.8 13.2 10.6 67 3.4 SE 20 28 11 15 1015.1 1013.0 0.0
24/04:30am 17.2 14.1 10.3 64 3.7 SE 17 20 9 11 1014.7 1012.6 0.0
24/04:00am 17.9 13.9 10.3 61 4.1 SE 22 32 12 17 1014.4 1012.4 0.0
24/03:30am 18.6 14.1 9.9 57 4.7 SE 24 32 13 17 1014.1 1012.1 0.0
24/03:00am 19.3 13.5 9.5 53 5.3 SE 30 41 16 22 1013.8 1011.7 0.0
24/02:30am 20.4 15.2 7.4 43 6.8 SE 24 30 13 16 1013.7 1011.6 0.0
24/02:00am 21.4 16.8 6.5 38 7.7 SE 20 30 11 16 1013.4 1011.3 0.0
24/01:30am 21.9 17.7 5.8 35 8.2 SE 17 24 9 13 1013.1 1011.0 0.0
24/01:00am 22.8 17.8 4.8 31 9.1 SSE 20 28 11 15 1012.8 1010.7 0.0
24/12:30am 23.2 18.2 3.7 28 9.7 SE 19 22 10 12 1012.8 1010.7 0.0
24/12:00am 23.9 18.6 2.1 24 10.5 SSE 19 22 10 12 1012.7 1010.6 0.0
 
Date/Time
WST
Temp
°C
App
Temp
°C
Dew
Point
Rel
Hum
%
Delta-T
°C
Wind Press
QNH
hPa
Press
MSL
hPa
Rain
since 9 am
mm
Dir
 
Spd
km/h
Gust
km/h
Spd
kts
Gust
kts
23/11:30pm 24.0 18.8 0.4 21 11.0 S 17 22 9 12 1012.7 1010.6 0.0
23/11:00pm 24.8 19.3 0.3 20 11.5 S 19 24 10 13 1012.6 1010.5 0.0
23/10:30pm 25.6 19.5 0.3 19 12.0 SSE 22 28 12 15 1012.6 1010.5 0.0
23/10:00pm 26.4 19.9 0.2 18 12.4 S 24 30 13 16 1012.7 1010.6 0.0
23/09:30pm 27.1 21.1 0.8 18 12.7 SSE 22 30 12 16 1012.6 1010.5 0.0
23/09:00pm 27.7 22.2 2.0 19 12.7 S 20 28 11 15 1012.4 1010.3 0.0
23/08:30pm 28.2 23.4 2.4 19 12.9 S 17 19 9 10 1012.3 1010.2 0.0
23/08:00pm 29.4 24.2 2.6 18 13.6 S 19 24 10 13 1012.1 1010.0 0.0
23/07:30pm 30.4 24.9 1.8 16 14.4 SSW 20 28 11 15 1011.9 1009.8 0.0
23/07:00pm 31.4 25.9 0.7 14 15.2 SSW 19 24 10 13 1011.8 1009.7 0.0
23/06:30pm 32.3 26.8 0.4 13 15.8 SSW 19 32 10 17 1011.4 1009.4 0.0
23/06:00pm 32.1 28.6 1.3 14 15.5 SW 9 13 5 7 1011.2 1009.1 0.0
23/05:30pm 32.6 26.9 -0.5 12 16.2 SSW 19 26 10 14 1011.3 1009.3 0.0
23/05:00pm 32.5 29.1 1.6 14 15.7 SW 9 22 5 12 1011.4 1009.4 0.0
23/04:30pm 32.7 29.1 2.7 15 15.5 SSW 11 17 6 9 1011.4 1009.4 0.0
23/04:00pm 32.3 27.5 0.4 13 15.8 S 15 24 8 13 1011.6 1009.5 0.0
23/03:30pm 31.9 27.8 2.1 15 15.2 S 13 26 7 14 1012.0 1009.9 0.0
23/03:00pm 31.6 27.6 2.7 16 14.8 S 13 20 7 11 1011.8 1009.7 0.0
23/02:30pm 32.2 28.8 4.1 17 14.8 SW 11 20 6 11 1012.3 1010.2 0.0

Other Formats:

Comma delimited format used in spreadsheet applications
http://www.bom.gov.au/fwo/IDW60801/IDW60801.95634.axf

JavaScript Object Notation format (JSON) in row-major order
http://www.bom.gov.au/fwo/IDW60801/IDW60801.95634.json